< < Back
Terminal Aerodrome Forecast


Current Version              Previous Versions:   1  2  3  4  5  6  7  8  9  

Terminal Aerodrome Forecast

214
FTUS44 KBMX 231000 AAA
TAFANB
TAF AMD
KANB 231018Z 2310/2406 05003KT P6SM SKC
     FM231500 05008KT P6SM FEW040
     FM240000 05003KT P6SM SKC=

Latest METAR

311
SAUS70 KWBC 240000 RRN
MTRANB
METAR KANB 232353Z AUTO 07005KT 10SM SCT065 23/13 A3016 RMK AO2 SLP209
T02330133 10278 20233 53006


USA.gov is the U.S. government's official web portal to all federal, state and local government web resources and services.